sensor_id;sensor_type;location;lat;lon;timestamp;P1;durP1;ratioP1;P2;durP2;ratioP2
15679;SDS011;15488;48.114;11.532;2024-03-02T00:00:53;6.17;;;4.90;;
15679;SDS011;15488;48.114;11.532;2024-03-02T00:03:21;6.40;;;5.07;;
15679;SDS011;15488;48.114;11.532;2024-03-02T00:05:48;13.67;;;9.73;;
15679;SDS011;15488;48.114;11.532;2024-03-02T00:08:22;28.57;;;17.27;;
15679;SDS011;15488;48.114;11.532;2024-03-02T00:10:51;17.47;;;10.53;;
15679;SDS011;15488;48.114;11.532;2024-03-02T00:13:23;23.00;;;13.80;;
15679;SDS011;15488;48.114;11.532;2024-03-02T00:15:53;14.17;;;10.10;;
15679;SDS011;15488;48.114;11.532;2024-03-02T00:18:24;15.97;;;10.87;;
15679;SDS011;15488;48.114;11.532;2024-03-02T00:20:53;9.10;;;6.43;;
15679;SDS011;15488;48.114;11.532;2024-03-02T00:23:23;7.13;;;5.47;;
15679;SDS011;15488;48.114;11.532;2024-03-02T00:25:54;7.33;;;5.50;;
15679;SDS011;15488;48.114;11.532;2024-03-02T00:28:24;7.50;;;5.60;;
15679;SDS011;15488;48.114;11.532;2024-03-02T00:30:59;8.03;;;5.70;;
15679;SDS011;15488;48.114;11.532;2024-03-02T00:33:30;7.73;;;5.60;;
15679;SDS011;15488;48.114;11.532;2024-03-02T00:35:59;7.27;;;5.70;;
15679;SDS011;15488;48.114;11.532;2024-03-02T00:38:29;7.57;;;5.80;;
15679;SDS011;15488;48.114;11.532;2024-03-02T00:40:58;7.37;;;5.67;;
15679;SDS011;15488;48.114;11.532;2024-03-02T00:46:11;6.87;;;5.57;;
15679;SDS011;15488;48.114;11.532;2024-03-02T00:48:39;6.60;;;4.87;;
15679;SDS011;15488;48.114;11.532;2024-03-02T00:51:14;6.23;;;4.83;;
15679;SDS011;15488;48.114;11.532;2024-03-02T00:53:43;7.07;;;5.30;;
15679;SDS011;15488;48.114;11.532;2024-03-02T00:56:10;6.30;;;5.03;;
15679;SDS011;15488;48.114;11.532;2024-03-02T00:58:38;5.53;;;4.63;;
15679;SDS011;15488;48.114;11.532;2024-03-02T01:01:06;7.23;;;5.10;;
15679;SDS011;15488;48.114;11.532;2024-03-02T01:03:34;6.23;;;5.00;;
15679;SDS011;15488;48.114;11.532;2024-03-02T01:06:03;7.00;;;5.17;;
15679;SDS011;15488;48.114;11.532;2024-03-02T01:08:32;6.50;;;5.40;;
15679;SDS011;15488;48.114;11.532;2024-03-02T01:11:02;6.00;;;5.10;;
15679;SDS011;15488;48.114;11.532;2024-03-02T01:13:30;6.77;;;5.27;;
15679;SDS011;15488;48.114;11.532;2024-03-02T01:15:58;6.70;;;5.33;;
15679;SDS011;15488;48.114;11.532;2024-03-02T01:18:26;6.63;;;4.67;;
15679;SDS011;15488;48.114;11.532;2024-03-02T01:20:53;7.77;;;5.03;;
15679;SDS011;15488;48.114;11.532;2024-03-02T01:23:21;6.27;;;5.20;;
15679;SDS011;15488;48.114;11.532;2024-03-02T01:25:49;6.43;;;5.33;;
15679;SDS011;15488;48.114;11.532;2024-03-02T01:28:18;6.50;;;5.13;;
15679;SDS011;15488;48.114;11.532;2024-03-02T01:30:46;6.67;;;5.10;;
15679;SDS011;15488;48.114;11.532;2024-03-02T01:33:14;6.90;;;5.23;;
15679;SDS011;15488;48.114;11.532;2024-03-02T01:35:42;7.37;;;5.77;;
15679;SDS011;15488;48.114;11.532;2024-03-02T01:38:10;7.27;;;5.20;;
15679;SDS011;15488;48.114;11.532;2024-03-02T01:40:38;6.27;;;5.23;;
15679;SDS011;15488;48.114;11.532;2024-03-02T01:43:05;6.43;;;4.97;;
15679;SDS011;15488;48.114;11.532;2024-03-02T01:45:35;6.27;;;5.00;;
15679;SDS011;15488;48.114;11.532;2024-03-02T01:48:03;7.00;;;5.20;;
15679;SDS011;15488;48.114;11.532;2024-03-02T01:50:32;6.83;;;5.43;;
15679;SDS011;15488;48.114;11.532;2024-03-02T01:53:00;6.70;;;5.00;;
15679;SDS011;15488;48.114;11.532;2024-03-02T01:55:28;6.70;;;5.30;;
15679;SDS011;15488;48.114;11.532;2024-03-02T01:57:56;6.23;;;5.10;;
15679;SDS011;15488;48.114;11.532;2024-03-02T02:00:24;7.10;;;5.20;;
15679;SDS011;15488;48.114;11.532;2024-03-02T02:02:53;7.17;;;4.50;;
15679;SDS011;15488;48.114;11.532;2024-03-02T02:05:21;6.30;;;4.50;;
15679;SDS011;15488;48.114;11.532;2024-03-02T02:07:48;5.87;;;4.83;;
15679;SDS011;15488;48.114;11.532;2024-03-02T02:10:16;6.47;;;4.37;;
15679;SDS011;15488;48.114;11.532;2024-03-02T02:12:44;6.27;;;4.90;;
15679;SDS011;15488;48.114;11.532;2024-03-02T02:15:21;5.10;;;3.87;;
15679;SDS011;15488;48.114;11.532;2024-03-02T02:17:50;6.43;;;4.90;;
15679;SDS011;15488;48.114;11.532;2024-03-02T02:20:19;6.20;;;4.73;;
15679;SDS011;15488;48.114;11.532;2024-03-02T02:22:57;6.00;;;4.87;;
15679;SDS011;15488;48.114;11.532;2024-03-02T02:25:26;6.33;;;5.30;;
15679;SDS011;15488;48.114;11.532;2024-03-02T02:27:54;6.00;;;4.73;;
15679;SDS011;15488;48.114;11.532;2024-03-02T02:30:22;6.13;;;4.70;;
15679;SDS011;15488;48.114;11.532;2024-03-02T02:32:51;5.10;;;4.53;;
15679;SDS011;15488;48.114;11.532;2024-03-02T02:35:19;7.00;;;4.83;;
15679;SDS011;15488;48.114;11.532;2024-03-02T02:37:47;6.70;;;4.87;;
15679;SDS011;15488;48.114;11.532;2024-03-02T02:40:16;7.20;;;4.03;;
15679;SDS011;15488;48.114;11.532;2024-03-02T02:42:45;5.93;;;4.73;;
15679;SDS011;15488;48.114;11.532;2024-03-02T02:45:12;6.23;;;4.73;;
15679;SDS011;15488;48.114;11.532;2024-03-02T02:47:40;5.90;;;4.87;;
15679;SDS011;15488;48.114;11.532;2024-03-02T02:50:08;7.23;;;5.17;;
15679;SDS011;15488;48.114;11.532;2024-03-02T02:52:37;6.50;;;4.90;;
15679;SDS011;15488;48.114;11.532;2024-03-02T02:55:06;7.00;;;5.10;;
15679;SDS011;15488;48.114;11.532;2024-03-02T02:57:36;6.60;;;5.27;;
15679;SDS011;15488;48.114;11.532;2024-03-02T03:00:06;5.63;;;4.57;;
15679;SDS011;15488;48.114;11.532;2024-03-02T03:02:39;7.17;;;4.87;;
15679;SDS011;15488;48.114;11.532;2024-03-02T03:05:08;5.80;;;4.90;;
15679;SDS011;15488;48.114;11.532;2024-03-02T03:07:36;6.40;;;4.93;;
15679;SDS011;15488;48.114;11.532;2024-03-02T03:10:05;6.97;;;5.03;;
15679;SDS011;15488;48.114;11.532;2024-03-02T03:12:33;6.57;;;5.17;;
15679;SDS011;15488;48.114;11.532;2024-03-02T03:15:03;7.60;;;5.27;;
15679;SDS011;15488;48.114;11.532;2024-03-02T03:17:32;6.73;;;4.93;;
15679;SDS011;15488;48.114;11.532;2024-03-02T03:20:00;9.23;;;5.33;;
15679;SDS011;15488;48.114;11.532;2024-03-02T03:22:29;7.70;;;5.63;;
15679;SDS011;15488;48.114;11.532;2024-03-02T03:24:56;7.37;;;5.50;;
15679;SDS011;15488;48.114;11.532;2024-03-02T03:27:24;7.20;;;5.00;;
15679;SDS011;15488;48.114;11.532;2024-03-02T03:29:52;6.60;;;4.90;;
15679;SDS011;15488;48.114;11.532;2024-03-02T03:32:21;7.87;;;5.80;;
15679;SDS011;15488;48.114;11.532;2024-03-02T03:34:50;9.00;;;5.30;;
15679;SDS011;15488;48.114;11.532;2024-03-02T03:37:17;8.17;;;6.20;;
15679;SDS011;15488;48.114;11.532;2024-03-02T03:39:45;7.77;;;5.43;;
15679;SDS011;15488;48.114;11.532;2024-03-02T03:42:12;8.87;;;5.90;;
15679;SDS011;15488;48.114;11.532;2024-03-02T03:44:40;8.30;;;5.50;;
15679;SDS011;15488;48.114;11.532;2024-03-02T03:47:07;7.70;;;5.97;;
15679;SDS011;15488;48.114;11.532;2024-03-02T03:49:36;8.13;;;6.03;;
15679;SDS011;15488;48.114;11.532;2024-03-02T03:52:04;8.63;;;6.23;;
15679;SDS011;15488;48.114;11.532;2024-03-02T03:54:31;9.17;;;6.43;;
15679;SDS011;15488;48.114;11.532;2024-03-02T03:56:59;9.03;;;6.67;;
15679;SDS011;15488;48.114;11.532;2024-03-02T03:59:27;8.40;;;5.43;;
15679;SDS011;15488;48.114;11.532;2024-03-02T04:01:54;8.73;;;5.77;;
15679;SDS011;15488;48.114;11.532;2024-03-02T04:04:22;7.50;;;5.33;;
15679;SDS011;15488;48.114;11.532;2024-03-02T04:06:50;8.27;;;6.47;;
15679;SDS011;15488;48.114;11.532;2024-03-02T04:09:18;8.43;;;6.43;;
15679;SDS011;15488;48.114;11.532;2024-03-02T04:11:46;9.20;;;6.80;;
15679;SDS011;15488;48.114;11.532;2024-03-02T04:14:13;10.00;;;6.50;;
15679;SDS011;15488;48.114;11.532;2024-03-02T04:16:41;7.73;;;6.30;;
15679;SDS011;15488;48.114;11.532;2024-03-02T04:19:08;7.83;;;6.10;;
15679;SDS011;15488;48.114;11.532;2024-03-02T04:21:36;8.00;;;6.47;;
15679;SDS011;15488;48.114;11.532;2024-03-02T04:24:05;8.53;;;6.43;;
15679;SDS011;15488;48.114;11.532;2024-03-02T04:26:33;9.13;;;6.20;;
15679;SDS011;15488;48.114;11.532;2024-03-02T04:29:00;10.30;;;6.90;;
15679;SDS011;15488;48.114;11.532;2024-03-02T04:31:28;7.33;;;5.87;;
15679;SDS011;15488;48.114;11.532;2024-03-02T04:33:56;7.63;;;5.00;;
15679;SDS011;15488;48.114;11.532;2024-03-02T04:36:23;7.23;;;6.03;;
15679;SDS011;15488;48.114;11.532;2024-03-02T04:38:51;7.20;;;5.80;;
15679;SDS011;15488;48.114;11.532;2024-03-02T04:41:20;7.73;;;6.10;;
15679;SDS011;15488;48.114;11.532;2024-03-02T04:43:47;8.97;;;6.57;;
15679;SDS011;15488;48.114;11.532;2024-03-02T04:46:15;7.33;;;5.60;;
15679;SDS011;15488;48.114;11.532;2024-03-02T04:48:42;8.63;;;6.50;;
15679;SDS011;15488;48.114;11.532;2024-03-02T04:51:10;7.97;;;5.80;;
15679;SDS011;15488;48.114;11.532;2024-03-02T04:53:38;8.47;;;6.30;;
15679;SDS011;15488;48.114;11.532;2024-03-02T04:56:06;7.47;;;6.07;;
15679;SDS011;15488;48.114;11.532;2024-03-02T04:59:05;9.00;;;6.43;;
15679;SDS011;15488;48.114;11.532;2024-03-02T05:01:33;7.83;;;6.33;;
15679;SDS011;15488;48.114;11.532;2024-03-02T05:04:00;8.73;;;6.70;;
15679;SDS011;15488;48.114;11.532;2024-03-02T05:06:28;8.23;;;6.07;;
15679;SDS011;15488;48.114;11.532;2024-03-02T05:08:56;9.47;;;6.17;;
15679;SDS011;15488;48.114;11.532;2024-03-02T05:11:23;9.47;;;6.93;;
15679;SDS011;15488;48.114;11.532;2024-03-02T05:14:06;8.93;;;6.70;;
15679;SDS011;15488;48.114;11.532;2024-03-02T05:16:34;10.43;;;6.60;;
15679;SDS011;15488;48.114;11.532;2024-03-02T05:19:03;9.87;;;7.27;;
15679;SDS011;15488;48.114;11.532;2024-03-02T05:21:32;9.03;;;6.67;;
15679;SDS011;15488;48.114;11.532;2024-03-02T05:23:59;10.33;;;7.00;;
15679;SDS011;15488;48.114;11.532;2024-03-02T05:26:27;10.13;;;6.40;;
15679;SDS011;15488;48.114;11.532;2024-03-02T05:28:55;9.87;;;7.03;;
15679;SDS011;15488;48.114;11.532;2024-03-02T05:31:23;9.07;;;6.90;;
15679;SDS011;15488;48.114;11.532;2024-03-02T05:33:51;9.93;;;7.37;;
15679;SDS011;15488;48.114;11.532;2024-03-02T05:36:18;9.87;;;7.03;;
15679;SDS011;15488;48.114;11.532;2024-03-02T05:38:46;10.93;;;7.53;;
15679;SDS011;15488;48.114;11.532;2024-03-02T05:41:14;9.77;;;6.33;;
15679;SDS011;15488;48.114;11.532;2024-03-02T05:43:41;8.70;;;6.73;;
15679;SDS011;15488;48.114;11.532;2024-03-02T05:46:09;9.57;;;6.70;;
15679;SDS011;15488;48.114;11.532;2024-03-02T05:48:38;9.83;;;6.20;;
15679;SDS011;15488;48.114;11.532;2024-03-02T05:51:06;9.07;;;6.80;;
15679;SDS011;15488;48.114;11.532;2024-03-02T05:53:33;8.87;;;6.73;;
15679;SDS011;15488;48.114;11.532;2024-03-02T05:56:03;8.97;;;7.27;;
15679;SDS011;15488;48.114;11.532;2024-03-02T05:58:31;10.23;;;7.03;;
15679;SDS011;15488;48.114;11.532;2024-03-02T06:01:11;9.13;;;7.20;;
15679;SDS011;15488;48.114;11.532;2024-03-02T06:03:40;9.67;;;7.10;;
15679;SDS011;15488;48.114;11.532;2024-03-02T06:06:07;11.57;;;7.73;;
15679;SDS011;15488;48.114;11.532;2024-03-02T06:08:35;9.87;;;7.63;;
15679;SDS011;15488;48.114;11.532;2024-03-02T06:11:03;11.70;;;7.80;;
15679;SDS011;15488;48.114;11.532;2024-03-02T06:13:30;10.90;;;6.63;;
15679;SDS011;15488;48.114;11.532;2024-03-02T06:15:58;10.20;;;6.77;;
15679;SDS011;15488;48.114;11.532;2024-03-02T06:18:25;12.13;;;8.13;;
15679;SDS011;15488;48.114;11.532;2024-03-02T06:20:55;11.90;;;8.27;;
15679;SDS011;15488;48.114;11.532;2024-03-02T06:23:23;13.67;;;9.07;;
15679;SDS011;15488;48.114;11.532;2024-03-02T06:25:50;11.47;;;8.47;;
15679;SDS011;15488;48.114;11.532;2024-03-02T06:28:18;11.70;;;8.17;;
15679;SDS011;15488;48.114;11.532;2024-03-02T06:30:45;10.53;;;7.80;;
15679;SDS011;15488;48.114;11.532;2024-03-02T06:33:13;10.87;;;7.63;;
15679;SDS011;15488;48.114;11.532;2024-03-02T06:35:41;10.77;;;6.60;;
15679;SDS011;15488;48.114;11.532;2024-03-02T06:38:10;9.90;;;7.40;;
15679;SDS011;15488;48.114;11.532;2024-03-02T06:40:37;11.00;;;6.83;;
15679;SDS011;15488;48.114;11.532;2024-03-02T06:43:05;10.73;;;7.70;;
15679;SDS011;15488;48.114;11.532;2024-03-02T06:45:33;10.43;;;7.53;;
15679;SDS011;15488;48.114;11.532;2024-03-02T06:48:00;9.90;;;7.53;;
15679;SDS011;15488;48.114;11.532;2024-03-02T06:50:28;12.80;;;7.97;;
15679;SDS011;15488;48.114;11.532;2024-03-02T06:52:56;11.27;;;7.77;;
15679;SDS011;15488;48.114;11.532;2024-03-02T06:55:25;11.27;;;8.10;;
15679;SDS011;15488;48.114;11.532;2024-03-02T06:57:52;13.20;;;8.30;;
15679;SDS011;15488;48.114;11.532;2024-03-02T07:00:20;10.37;;;7.77;;
15679;SDS011;15488;48.114;11.532;2024-03-02T07:02:47;10.50;;;7.80;;
15679;SDS011;15488;48.114;11.532;2024-03-02T07:05:15;12.60;;;8.40;;
15679;SDS011;15488;48.114;11.532;2024-03-02T07:07:42;12.07;;;7.33;;
15679;SDS011;15488;48.114;11.532;2024-03-02T07:10:10;11.80;;;8.03;;
15679;SDS011;15488;48.114;11.532;2024-03-02T07:12:39;14.03;;;8.70;;
15679;SDS011;15488;48.114;11.532;2024-03-02T07:15:07;12.27;;;7.97;;
15679;SDS011;15488;48.114;11.532;2024-03-02T07:17:50;12.87;;;8.93;;
15679;SDS011;15488;48.114;11.532;2024-03-02T07:20:17;11.43;;;8.47;;
15679;SDS011;15488;48.114;11.532;2024-03-02T07:22:45;13.17;;;8.90;;
15679;SDS011;15488;48.114;11.532;2024-03-02T07:25:13;11.47;;;8.73;;
15679;SDS011;15488;48.114;11.532;2024-03-02T07:27:42;11.90;;;8.37;;
15679;SDS011;15488;48.114;11.532;2024-03-02T07:30:13;12.00;;;8.47;;
15679;SDS011;15488;48.114;11.532;2024-03-02T07:32:42;11.83;;;8.03;;
15679;SDS011;15488;48.114;11.532;2024-03-02T07:35:11;11.03;;;7.90;;
15679;SDS011;15488;48.114;11.532;2024-03-02T07:37:39;13.60;;;7.93;;
15679;SDS011;15488;48.114;11.532;2024-03-02T07:40:08;11.60;;;8.27;;
15679;SDS011;15488;48.114;11.532;2024-03-02T07:42:37;11.97;;;8.37;;
15679;SDS011;15488;48.114;11.532;2024-03-02T07:45:07;13.83;;;9.00;;
15679;SDS011;15488;48.114;11.532;2024-03-02T07:47:35;13.00;;;8.13;;
15679;SDS011;15488;48.114;11.532;2024-03-02T07:50:02;12.30;;;7.73;;
15679;SDS011;15488;48.114;11.532;2024-03-02T07:52:31;12.87;;;8.40;;
15679;SDS011;15488;48.114;11.532;2024-03-02T07:54:59;11.80;;;8.47;;
15679;SDS011;15488;48.114;11.532;2024-03-02T07:57:27;12.70;;;8.53;;
15679;SDS011;15488;48.114;11.532;2024-03-02T07:59:54;12.47;;;7.73;;
15679;SDS011;15488;48.114;11.532;2024-03-02T08:02:25;12.03;;;7.03;;
15679;SDS011;15488;48.114;11.532;2024-03-02T08:04:53;11.80;;;8.20;;
15679;SDS011;15488;48.114;11.532;2024-03-02T08:07:21;12.37;;;7.53;;
15679;SDS011;15488;48.114;11.532;2024-03-02T08:09:48;11.17;;;7.23;;
15679;SDS011;15488;48.114;11.532;2024-03-02T08:12:16;12.70;;;7.07;;
15679;SDS011;15488;48.114;11.532;2024-03-02T08:14:44;12.23;;;6.90;;
15679;SDS011;15488;48.114;11.532;2024-03-02T08:17:12;11.70;;;6.70;;
15679;SDS011;15488;48.114;11.532;2024-03-02T08:19:41;9.50;;;6.50;;
15679;SDS011;15488;48.114;11.532;2024-03-02T08:22:09;9.93;;;7.17;;
15679;SDS011;15488;48.114;11.532;2024-03-02T08:24:37;9.90;;;6.20;;
15679;SDS011;15488;48.114;11.532;2024-03-02T08:27:04;10.53;;;7.30;;
15679;SDS011;15488;48.114;11.532;2024-03-02T08:29:32;11.93;;;7.90;;
15679;SDS011;15488;48.114;11.532;2024-03-02T08:32:00;10.80;;;7.50;;
15679;SDS011;15488;48.114;11.532;2024-03-02T08:34:27;10.03;;;7.40;;
15679;SDS011;15488;48.114;11.532;2024-03-02T08:36:56;11.57;;;7.73;;
15679;SDS011;15488;48.114;11.532;2024-03-02T08:39:24;11.27;;;7.20;;
15679;SDS011;15488;48.114;11.532;2024-03-02T08:41:51;10.03;;;7.23;;
15679;SDS011;15488;48.114;11.532;2024-03-02T08:44:19;9.40;;;6.13;;
15679;SDS011;15488;48.114;11.532;2024-03-02T08:46:47;10.10;;;7.60;;
15679;SDS011;15488;48.114;11.532;2024-03-02T08:49:15;11.30;;;6.87;;
15679;SDS011;15488;48.114;11.532;2024-03-02T08:51:42;10.83;;;7.60;;
15679;SDS011;15488;48.114;11.532;2024-03-02T08:54:11;11.43;;;8.00;;
15679;SDS011;15488;48.114;11.532;2024-03-02T08:56:39;12.23;;;7.90;;
15679;SDS011;15488;48.114;11.532;2024-03-02T08:59:06;30.33;;;17.43;;
15679;SDS011;15488;48.114;11.532;2024-03-02T09:01:34;24.70;;;15.03;;
15679;SDS011;15488;48.114;11.532;2024-03-02T09:04:06;47.37;;;21.83;;
15679;SDS011;15488;48.114;11.532;2024-03-02T09:06:34;32.73;;;17.13;;
15679;SDS011;15488;48.114;11.532;2024-03-02T09:09:02;51.40;;;28.17;;
15679;SDS011;15488;48.114;11.532;2024-03-02T09:11:31;16.37;;;10.77;;
15679;SDS011;15488;48.114;11.532;2024-03-02T09:13:59;11.37;;;8.20;;
15679;SDS011;15488;48.114;11.532;2024-03-02T09:16:27;8.27;;;6.13;;
15679;SDS011;15488;48.114;11.532;2024-03-02T09:18:55;9.77;;;6.80;;
15679;SDS011;15488;48.114;11.532;2024-03-02T09:21:23;8.63;;;5.87;;
15679;SDS011;15488;48.114;11.532;2024-03-02T09:23:51;9.60;;;5.57;;
15679;SDS011;15488;48.114;11.532;2024-03-02T09:26:19;9.50;;;6.10;;
15679;SDS011;15488;48.114;11.532;2024-03-02T09:28:49;11.27;;;7.93;;
15679;SDS011;15488;48.114;11.532;2024-03-02T09:31:16;10.10;;;7.03;;
15679;SDS011;15488;48.114;11.532;2024-03-02T09:33:44;10.33;;;7.20;;
15679;SDS011;15488;48.114;11.532;2024-03-02T09:36:18;9.90;;;7.40;;
15679;SDS011;15488;48.114;11.532;2024-03-02T09:38:45;12.83;;;7.37;;
15679;SDS011;15488;48.114;11.532;2024-03-02T09:41:13;9.50;;;6.70;;
15679;SDS011;15488;48.114;11.532;2024-03-02T09:43:41;10.47;;;8.03;;
15679;SDS011;15488;48.114;11.532;2024-03-02T09:46:10;11.67;;;7.80;;
15679;SDS011;15488;48.114;11.532;2024-03-02T09:48:38;11.13;;;7.60;;
15679;SDS011;15488;48.114;11.532;2024-03-02T09:51:05;10.27;;;7.47;;
15679;SDS011;15488;48.114;11.532;2024-03-02T09:53:33;10.13;;;7.10;;
15679;SDS011;15488;48.114;11.532;2024-03-02T09:56:01;8.80;;;6.90;;
15679;SDS011;15488;48.114;11.532;2024-03-02T09:58:29;9.80;;;7.27;;
15679;SDS011;15488;48.114;11.532;2024-03-02T10:00:57;14.63;;;8.50;;
15679;SDS011;15488;48.114;11.532;2024-03-02T10:03:26;12.33;;;7.80;;
15679;SDS011;15488;48.114;11.532;2024-03-02T10:08:46;9.10;;;6.53;;
15679;SDS011;15488;48.114;11.532;2024-03-02T10:11:25;24.07;;;14.07;;
15679;SDS011;15488;48.114;11.532;2024-03-02T10:14:04;15.13;;;9.67;;
15679;SDS011;15488;48.114;11.532;2024-03-02T10:16:34;8.23;;;5.20;;
15679;SDS011;15488;48.114;11.532;2024-03-02T10:21:52;6.87;;;4.90;;
15679;SDS011;15488;48.114;11.532;2024-03-02T10:24:21;7.00;;;5.00;;
15679;SDS011;15488;48.114;11.532;2024-03-02T10:26:50;7.10;;;4.70;;
15679;SDS011;15488;48.114;11.532;2024-03-02T10:29:18;6.03;;;4.40;;
15679;SDS011;15488;48.114;11.532;2024-03-02T10:31:46;6.27;;;4.73;;
15679;SDS011;15488;48.114;11.532;2024-03-02T10:34:13;5.07;;;3.97;;
15679;SDS011;15488;48.114;11.532;2024-03-02T10:36:43;5.57;;;4.17;;
15679;SDS011;15488;48.114;11.532;2024-03-02T10:39:11;6.33;;;4.40;;
15679;SDS011;15488;48.114;11.532;2024-03-02T10:41:40;5.23;;;3.83;;
15679;SDS011;15488;48.114;11.532;2024-03-02T10:44:08;4.90;;;3.50;;
15679;SDS011;15488;48.114;11.532;2024-03-02T10:46:37;4.83;;;3.37;;
15679;SDS011;15488;48.114;11.532;2024-03-02T10:49:04;4.77;;;3.30;;
15679;SDS011;15488;48.114;11.532;2024-03-02T10:51:34;7.10;;;3.83;;
15679;SDS011;15488;48.114;11.532;2024-03-02T10:54:04;4.87;;;3.70;;
15679;SDS011;15488;48.114;11.532;2024-03-02T10:56:32;7.83;;;3.50;;
15679;SDS011;15488;48.114;11.532;2024-03-02T10:59:03;4.93;;;3.43;;
15679;SDS011;15488;48.114;11.532;2024-03-02T11:01:37;4.70;;;3.50;;
15679;SDS011;15488;48.114;11.532;2024-03-02T11:04:09;5.90;;;3.93;;
15679;SDS011;15488;48.114;11.532;2024-03-02T11:06:42;6.73;;;4.07;;
15679;SDS011;15488;48.114;11.532;2024-03-02T11:09:16;5.83;;;4.07;;
15679;SDS011;15488;48.114;11.532;2024-03-02T11:11:49;5.13;;;4.03;;
15679;SDS011;15488;48.114;11.532;2024-03-02T11:14:21;6.47;;;3.90;;
15679;SDS011;15488;48.114;11.532;2024-03-02T11:16:51;6.33;;;4.37;;
15679;SDS011;15488;48.114;11.532;2024-03-02T11:19:19;6.37;;;4.17;;
15679;SDS011;15488;48.114;11.532;2024-03-02T11:21:47;5.87;;;3.47;;
15679;SDS011;15488;48.114;11.532;2024-03-02T11:24:32;5.30;;;4.00;;
15679;SDS011;15488;48.114;11.532;2024-03-02T11:27:00;7.67;;;4.80;;
15679;SDS011;15488;48.114;11.532;2024-03-02T11:29:45;7.20;;;4.70;;
15679;SDS011;15488;48.114;11.532;2024-03-02T11:32:14;8.17;;;5.73;;
15679;SDS011;15488;48.114;11.532;2024-03-02T11:34:45;9.17;;;5.60;;
15679;SDS011;15488;48.114;11.532;2024-03-02T11:37:14;9.87;;;6.13;;
15679;SDS011;15488;48.114;11.532;2024-03-02T11:39:44;9.97;;;6.57;;
15679;SDS011;15488;48.114;11.532;2024-03-02T11:42:13;10.10;;;6.07;;
15679;SDS011;15488;48.114;11.532;2024-03-02T11:44:42;11.37;;;6.83;;
15679;SDS011;15488;48.114;11.532;2024-03-02T11:47:12;9.97;;;6.70;;
15679;SDS011;15488;48.114;11.532;2024-03-02T11:49:42;11.00;;;7.30;;
15679;SDS011;15488;48.114;11.532;2024-03-02T11:52:11;9.00;;;6.63;;
15679;SDS011;15488;48.114;11.532;2024-03-02T11:54:42;9.73;;;6.67;;
15679;SDS011;15488;48.114;11.532;2024-03-02T11:57:14;9.77;;;6.20;;
15679;SDS011;15488;48.114;11.532;2024-03-02T11:59:42;8.57;;;6.40;;
15679;SDS011;15488;48.114;11.532;2024-03-02T12:02:14;9.57;;;6.37;;
15679;SDS011;15488;48.114;11.532;2024-03-02T12:04:43;8.20;;;5.50;;
15679;SDS011;15488;48.114;11.532;2024-03-02T12:07:11;9.23;;;5.93;;
15679;SDS011;15488;48.114;11.532;2024-03-02T12:09:45;8.53;;;5.43;;
15679;SDS011;15488;48.114;11.532;2024-03-02T12:12:13;9.27;;;5.67;;
15679;SDS011;15488;48.114;11.532;2024-03-02T12:14:49;7.37;;;5.23;;
15679;SDS011;15488;48.114;11.532;2024-03-02T12:17:18;7.47;;;5.10;;
15679;SDS011;15488;48.114;11.532;2024-03-02T12:19:45;8.50;;;5.70;;
15679;SDS011;15488;48.114;11.532;2024-03-02T12:22:13;7.83;;;5.17;;
15679;SDS011;15488;48.114;11.532;2024-03-02T12:24:41;6.20;;;4.53;;
15679;SDS011;15488;48.114;11.532;2024-03-02T12:27:12;5.93;;;4.50;;
15679;SDS011;15488;48.114;11.532;2024-03-02T12:29:43;7.17;;;4.83;;
15679;SDS011;15488;48.114;11.532;2024-03-02T12:32:11;7.27;;;4.83;;
15679;SDS011;15488;48.114;11.532;2024-03-02T12:34:39;9.27;;;5.70;;
15679;SDS011;15488;48.114;11.532;2024-03-02T12:37:06;6.77;;;5.33;;
15679;SDS011;15488;48.114;11.532;2024-03-02T12:39:34;7.43;;;5.10;;
15679;SDS011;15488;48.114;11.532;2024-03-02T12:42:02;7.80;;;5.50;;
15679;SDS011;15488;48.114;11.532;2024-03-02T12:44:31;8.20;;;5.43;;
15679;SDS011;15488;48.114;11.532;2024-03-02T12:46:59;10.40;;;6.30;;
15679;SDS011;15488;48.114;11.532;2024-03-02T12:49:27;13.13;;;6.67;;
15679;SDS011;15488;48.114;11.532;2024-03-02T12:51:55;9.13;;;5.83;;
15679;SDS011;15488;48.114;11.532;2024-03-02T12:54:23;7.10;;;5.70;;
15679;SDS011;15488;48.114;11.532;2024-03-02T12:56:52;9.13;;;5.80;;
15679;SDS011;15488;48.114;11.532;2024-03-02T12:59:20;7.87;;;6.07;;
15679;SDS011;15488;48.114;11.532;2024-03-02T13:01:53;8.70;;;5.87;;
15679;SDS011;15488;48.114;11.532;2024-03-02T13:04:22;10.20;;;6.90;;
15679;SDS011;15488;48.114;11.532;2024-03-02T13:06:51;9.73;;;6.70;;
15679;SDS011;15488;48.114;11.532;2024-03-02T13:09:22;9.87;;;6.57;;
15679;SDS011;15488;48.114;11.532;2024-03-02T13:11:50;7.53;;;5.77;;
15679;SDS011;15488;48.114;11.532;2024-03-02T13:14:18;8.20;;;5.47;;
15679;SDS011;15488;48.114;11.532;2024-03-02T13:16:50;7.70;;;5.33;;
15679;SDS011;15488;48.114;11.532;2024-03-02T13:19:19;8.00;;;5.53;;
15679;SDS011;15488;48.114;11.532;2024-03-02T13:21:46;6.77;;;4.97;;
15679;SDS011;15488;48.114;11.532;2024-03-02T13:24:15;6.90;;;5.80;;
15679;SDS011;15488;48.114;11.532;2024-03-02T13:26:43;6.50;;;5.20;;
15679;SDS011;15488;48.114;11.532;2024-03-02T13:29:11;7.63;;;6.03;;
15679;SDS011;15488;48.114;11.532;2024-03-02T13:31:38;8.67;;;7.03;;
15679;SDS011;15488;48.114;11.532;2024-03-02T13:34:06;8.77;;;7.37;;
15679;SDS011;15488;48.114;11.532;2024-03-02T13:36:35;11.20;;;8.60;;
15679;SDS011;15488;48.114;11.532;2024-03-02T13:39:03;9.63;;;7.97;;
15679;SDS011;15488;48.114;11.532;2024-03-02T13:41:34;10.27;;;8.40;;
15679;SDS011;15488;48.114;11.532;2024-03-02T13:44:02;9.53;;;8.30;;
15679;SDS011;15488;48.114;11.532;2024-03-02T13:46:30;10.60;;;8.10;;
15679;SDS011;15488;48.114;11.532;2024-03-02T13:48:57;10.80;;;8.43;;
15679;SDS011;15488;48.114;11.532;2024-03-02T13:51:26;11.20;;;7.20;;
15679;SDS011;15488;48.114;11.532;2024-03-02T13:53:55;8.93;;;7.00;;
15679;SDS011;15488;48.114;11.532;2024-03-02T13:56:23;9.80;;;6.33;;
15679;SDS011;15488;48.114;11.532;2024-03-02T13:58:50;8.87;;;7.33;;
15679;SDS011;15488;48.114;11.532;2024-03-02T14:01:18;8.67;;;6.90;;
15679;SDS011;15488;48.114;11.532;2024-03-02T14:03:46;9.13;;;7.50;;
15679;SDS011;15488;48.114;11.532;2024-03-02T14:06:13;9.47;;;7.60;;
15679;SDS011;15488;48.114;11.532;2024-03-02T14:08:41;10.43;;;7.90;;
15679;SDS011;15488;48.114;11.532;2024-03-02T14:11:11;9.20;;;7.83;;
15679;SDS011;15488;48.114;11.532;2024-03-02T14:13:40;10.75;;;8.00;;
15679;SDS011;15488;48.114;11.532;2024-03-02T14:16:09;9.30;;;7.60;;
15679;SDS011;15488;48.114;11.532;2024-03-02T14:18:37;8.57;;;7.28;;
15679;SDS011;15488;48.114;11.532;2024-03-02T14:21:04;8.97;;;6.83;;
15679;SDS011;15488;48.114;11.532;2024-03-02T14:23:32;6.85;;;6.15;;
15679;SDS011;15488;48.114;11.532;2024-03-02T14:25:59;7.78;;;6.28;;
15679;SDS011;15488;48.114;11.532;2024-03-02T14:28:28;7.13;;;5.75;;
15679;SDS011;15488;48.114;11.532;2024-03-02T14:30:56;8.38;;;6.35;;
15679;SDS011;15488;48.114;11.532;2024-03-02T14:33:25;7.93;;;5.88;;
15679;SDS011;15488;48.114;11.532;2024-03-02T14:35:53;6.53;;;5.32;;
15679;SDS011;15488;48.114;11.532;2024-03-02T14:38:21;5.65;;;4.47;;
15679;SDS011;15488;48.114;11.532;2024-03-02T14:40:49;5.20;;;4.40;;
15679;SDS011;15488;48.114;11.532;2024-03-02T14:43:16;6.60;;;5.00;;
15679;SDS011;15488;48.114;11.532;2024-03-02T14:45:45;8.63;;;5.93;;
15679;SDS011;15488;48.114;11.532;2024-03-02T14:48:13;7.47;;;6.60;;